Time;durP1;ratioP1;P1;durP2;ratioP2;P2;SDS_P1;SDS_P2;PMS_P1;PMS_P2;Temp;Humidity;BMP_temperature;BMP_pressure;BME280_temperature;BME280_humidity;BME280_pressure;Samples;Min_cycle;Max_cycle;Signal;HPM_P1;HPM_P2
2020/12/19 00:01:45;;;;;;;4.13;1.70;;;23.10;46.70;;;;;;5113582;27;20425;-71
2020/12/19 00:04:11;;;;;;;3.25;1.77;;;23.10;46.70;;;;;;5120960;27;20027;-71
2020/12/19 00:06:36;;;;;;;3.50;2.03;;;23.10;46.70;;;;;;5117237;27;20586;-71
2020/12/19 00:09:02;;;;;;;2.40;1.55;;;23.10;46.70;;;;;;5132133;27;20027;-71
2020/12/19 00:11:28;;;;;;;3.38;2.00;;;23.10;46.80;;;;;;5107923;27;20111;-71
2020/12/19 00:13:54;;;;;;;3.17;1.80;;;23.00;46.80;;;;;;5107855;28;20106;-71
2020/12/19 00:16:19;;;;;;;3.20;1.70;;;23.00;47.40;;;;;;5119840;27;20385;-71
2020/12/19 00:18:45;;;;;;;3.25;1.80;;;23.00;46.80;;;;;;5110987;27;20115;-71
2020/12/19 00:21:11;;;;;;;3.08;1.80;;;23.00;46.90;;;;;;5125606;27;20028;-71
2020/12/19 00:23:38;;;;;;;3.33;2.00;;;22.90;46.90;;;;;;5110459;27;20457;-71
2020/12/19 00:26:04;;;;;;;3.70;1.80;;;22.90;47.00;;;;;;5093350;27;20278;-71
2020/12/19 00:28:30;;;;;;;3.13;1.80;;;22.80;46.90;;;;;;5126750;27;20073;-71
2020/12/19 00:30:56;;;;;;;2.42;1.60;;;22.80;46.90;;;;;;5117403;27;20411;-71
2020/12/19 00:33:22;;;;;;;2.40;1.50;;;22.80;47.00;;;;;;5101098;28;20024;-71
2020/12/19 00:35:48;;;;;;;5.03;1.85;;;22.80;47.00;;;;;;5108914;27;20377;-71
2020/12/19 00:38:14;;;;;;;2.60;1.50;;;22.70;47.00;;;;;;5119473;27;20454;-71
2020/12/19 00:40:39;;;;;;;2.22;1.38;;;22.70;47.10;;;;;;5120526;27;20045;-71
2020/12/19 00:43:05;;;;;;;2.80;1.80;;;22.70;47.10;;;;;;5117840;27;20023;-71
2020/12/19 00:45:31;;;;;;;2.38;1.70;;;22.70;47.10;;;;;;5103656;27;20680;-71
2020/12/19 00:47:56;;;;;;;2.53;1.60;;;22.60;47.10;;;;;;5117818;27;20035;-72
2020/12/19 00:50:22;;;;;;;3.75;1.60;;;22.60;47.10;;;;;;5088528;27;20034;-71
2020/12/19 00:52:47;;;;;;;3.65;1.85;;;22.60;47.10;;;;;;5110856;27;20107;-71
2020/12/19 00:55:13;;;;;;;3.15;1.50;;;22.60;47.20;;;;;;5101429;27;20296;-71
2020/12/19 00:57:39;;;;;;;2.40;1.60;;;22.60;47.20;;;;;;5098937;28;20340;-71
2020/12/19 01:00:08;;;;;;;2.03;1.40;;;22.60;47.20;;;;;;5109351;27;20782;-71
2020/12/19 01:02:38;;;;;;;2.63;1.77;;;22.50;47.20;;;;;;5098415;27;20027;-71
2020/12/19 01:05:06;;;;;;;3.00;1.70;;;22.50;47.20;;;;;;5110916;27;20028;-72
2020/12/19 01:07:32;;;;;;;3.33;1.60;;;22.50;47.30;;;;;;5094617;28;20031;-71
2020/12/19 01:09:58;;;;;;;2.20;1.40;;;22.40;47.30;;;;;;5106688;27;20054;-71
2020/12/19 01:12:24;;;;;;;2.42;1.40;;;22.40;47.30;;;;;;5104946;27;20049;-71
2020/12/19 01:14:50;;;;;;;2.63;1.55;;;22.40;47.30;;;;;;5101667;28;20019;-71
2020/12/19 01:17:16;;;;;;;2.28;1.30;;;22.40;47.30;;;;;;5121817;28;20044;-71
2020/12/19 01:19:41;;;;;;;2.15;1.52;;;22.40;47.40;;;;;;5118994;27;20040;-71
2020/12/19 01:22:07;;;;;;;2.30;1.50;;;22.30;47.40;;;;;;5104338;28;20020;-71
2020/12/19 01:24:33;;;;;;;2.10;1.40;;;22.30;47.40;;;;;;5123688;28;20034;-72
2020/12/19 01:26:59;;;;;;;2.00;1.35;;;22.30;47.50;;;;;;5107453;28;20016;-71
2020/12/19 01:29:24;;;;;;;1.95;1.30;;;22.30;47.50;;;;;;5129773;27;20065;-71
2020/12/19 01:31:50;;;;;;;2.38;1.40;;;22.20;47.50;;;;;;5128318;27;20023;-71
2020/12/19 01:34:16;;;;;;;2.08;1.20;;;22.20;47.50;;;;;;5121386;27;20386;-71
2020/12/19 01:36:41;;;;;;;2.22;1.40;;;22.20;47.50;;;;;;5120553;27;20038;-71
2020/12/19 01:39:07;;;;;;;1.73;1.20;;;22.20;47.60;;;;;;5128258;27;20502;-71
2020/12/19 01:41:33;;;;;;;3.03;1.52;;;22.20;47.60;;;;;;5127807;27;20027;-71
2020/12/19 01:43:59;;;;;;;3.05;1.60;;;22.20;47.60;;;;;;5129474;27;20037;-71
2020/12/19 01:46:32;;;;;;;2.20;1.30;;;22.10;47.50;;;;;;5108611;27;20403;-71
2020/12/19 01:49:03;;;;;;;3.55;1.50;;;22.10;47.60;;;;;;5121961;27;20031;-72
2020/12/19 01:51:29;;;;;;;1.58;1.10;;;22.10;47.60;;;;;;5107105;27;20031;-71
2020/12/19 01:53:56;;;;;;;1.42;1.15;;;22.10;47.60;;;;;;5111084;27;20106;-72
2020/12/19 01:56:39;;;;;;;1.75;1.10;;;22.00;47.60;;;;;;5117983;27;20019;-72
2020/12/19 01:59:06;;;;;;;1.58;1.15;;;22.00;47.60;;;;;;5127488;27;20027;-71
2020/12/19 02:01:43;;;;;;;1.88;1.20;;;22.00;47.70;;;;;;5121684;27;20050;-71
2020/12/19 02:04:09;;;;;;;1.40;0.98;;;22.00;47.70;;;;;;5123194;27;20023;-72
2020/12/19 02:06:35;;;;;;;1.63;1.20;;;22.00;47.70;;;;;;5108948;27;20129;-71
2020/12/19 02:09:00;;;;;;;2.00;1.30;;;22.00;47.70;;;;;;5107841;27;20118;-72
2020/12/19 02:11:27;;;;;;;2.20;1.40;;;22.00;47.80;;;;;;5124422;27;20042;-72
2020/12/19 02:13:53;;;;;;;1.90;1.30;;;22.00;47.80;;;;;;5109083;27;20034;-72
2020/12/19 02:16:19;;;;;;;1.60;1.30;;;21.90;47.80;;;;;;5109401;27;20659;-72
2020/12/19 02:18:45;;;;;;;2.08;1.25;;;21.90;47.80;;;;;;5108628;28;20544;-72
2020/12/19 02:21:11;;;;;;;1.60;1.10;;;21.90;47.80;;;;;;5122329;27;20109;-72
2020/12/19 02:23:36;;;;;;;2.03;1.30;;;21.90;47.80;;;;;;5126748;27;20046;-71
2020/12/19 02:26:02;;;;;;;1.77;1.20;;;21.90;47.80;;;;;;5123281;27;20026;-71
2020/12/19 02:28:28;;;;;;;2.17;1.20;;;21.80;47.80;;;;;;5108181;28;20416;-72
2020/12/19 02:30:53;;;;;;;1.70;1.10;;;21.80;47.80;;;;;;5119376;27;20078;-72
2020/12/19 02:33:19;;;;;;;1.77;1.23;;;21.80;47.80;;;;;;5112858;27;20036;-72
2020/12/19 02:35:44;;;;;;;2.30;1.30;;;21.80;47.90;;;;;;5108953;27;20106;-72
2020/12/19 02:38:10;;;;;;;2.15;1.30;;;21.70;47.80;;;;;;5107931;28;20042;-72
2020/12/19 02:40:35;;;;;;;1.65;1.13;;;21.80;47.90;;;;;;5104462;27;20032;-72
2020/12/19 02:43:01;;;;;;;2.85;1.17;;;21.80;48.00;;;;;;5129536;27;20031;-72
2020/12/19 02:45:26;;;;;;;1.75;1.10;;;21.70;47.90;;;;;;5096912;27;20080;-72
2020/12/19 02:47:52;;;;;;;2.15;1.30;;;21.70;47.90;;;;;;5107976;27;20477;-72
2020/12/19 02:50:18;;;;;;;1.48;1.10;;;21.70;48.00;;;;;;5124735;27;20030;-72
2020/12/19 02:52:43;;;;;;;1.92;1.20;;;21.70;48.00;;;;;;5099895;27;20035;-72
2020/12/19 02:55:09;;;;;;;1.50;1.10;;;21.70;48.10;;;;;;5124660;27;20473;-72
2020/12/19 02:57:34;;;;;;;1.52;1.05;;;21.60;48.00;;;;;;5144755;27;20057;-72
2020/12/19 03:00:00;;;;;;;1.52;1.20;;;21.60;48.00;;;;;;5149117;27;20078;-72
2020/12/19 03:02:25;;;;;;;1.90;1.30;;;21.60;48.00;;;;;;5114696;27;20031;-72
2020/12/19 03:04:51;;;;;;;1.65;1.10;;;21.60;48.10;;;;;;5117040;27;20028;-72
2020/12/19 03:07:17;;;;;;;1.63;1.08;;;21.60;48.10;;;;;;5126426;27;20020;-72
2020/12/19 03:09:42;;;;;;;1.60;1.20;;;21.60;48.60;;;;;;5126361;27;20019;-72
2020/12/19 03:12:08;;;;;;;1.75;1.10;;;21.60;48.10;;;;;;5129686;27;20108;-72
2020/12/19 03:14:33;;;;;;;1.58;1.20;;;21.50;48.10;;;;;;5148809;27;20444;-72
2020/12/19 03:16:59;;;;;;;1.30;1.10;;;21.50;48.60;;;;;;5138665;27;20114;-72
2020/12/19 03:19:24;;;;;;;1.40;1.10;;;21.50;48.10;;;;;;5118515;27;20098;-72
2020/12/19 03:21:50;;;;;;;1.42;1.05;;;21.50;48.10;;;;;;5108137;27;20153;-72
2020/12/19 03:24:16;;;;;;;1.45;1.20;;;21.50;48.10;;;;;;5109101;27;20036;-71
2020/12/19 03:26:41;;;;;;;1.52;1.00;;;21.50;48.10;;;;;;5101977;27;20026;-71
2020/12/19 03:29:07;;;;;;;1.65;1.10;;;21.50;48.50;;;;;;5128946;27;20489;-71
2020/12/19 03:31:32;;;;;;;1.50;1.10;;;21.40;48.10;;;;;;5109224;27;20032;-71
2020/12/19 03:33:58;;;;;;;1.70;1.05;;;21.40;48.20;;;;;;5089073;28;20083;-72
2020/12/19 03:36:23;;;;;;;1.50;1.10;;;21.40;48.10;;;;;;5098153;27;20343;-72
2020/12/19 03:38:49;;;;;;;1.95;1.15;;;21.40;48.20;;;;;;5145511;27;20424;-71
2020/12/19 03:41:14;;;;;;;1.88;1.20;;;21.40;48.20;;;;;;5103998;27;20023;-72
2020/12/19 03:43:40;;;;;;;1.20;1.00;;;21.40;48.30;;;;;;5112284;27;20043;-72
2020/12/19 03:46:06;;;;;;;1.55;1.10;;;21.40;48.30;;;;;;5112460;27;20035;-71
2020/12/19 03:48:32;;;;;;;1.55;1.10;;;21.40;48.20;;;;;;5128704;27;20100;-72
2020/12/19 03:50:57;;;;;;;1.73;1.10;;;21.40;48.30;;;;;;5123134;27;20015;-72
2020/12/19 03:53:23;;;;;;;2.08;1.20;;;21.40;48.30;;;;;;5097144;27;20439;-71
2020/12/19 03:55:49;;;;;;;1.35;1.00;;;21.30;48.20;;;;;;5126491;27;20027;-72
2020/12/19 03:58:15;;;;;;;1.80;1.17;;;21.30;48.30;;;;;;5111531;27;20381;-72
2020/12/19 04:00:40;;;;;;;1.50;1.17;;;21.30;48.30;;;;;;5122151;27;20061;-71
2020/12/19 04:03:06;;;;;;;1.63;1.13;;;21.30;48.30;;;;;;5117665;27;20081;-72
2020/12/19 04:05:31;;;;;;;1.45;1.00;;;21.30;48.30;;;;;;5099644;27;20154;-72
2020/12/19 04:07:57;;;;;;;1.85;1.10;;;21.40;48.40;;;;;;5110263;27;20027;-72
2020/12/19 04:10:23;;;;;;;2.15;1.10;;;21.30;48.30;;;;;;5119303;27;20028;-72
2020/12/19 04:12:48;;;;;;;1.73;1.20;;;21.30;48.30;;;;;;5129151;27;20031;-72
2020/12/19 04:15:14;;;;;;;1.63;1.15;;;21.30;48.30;;;;;;5120939;27;20063;-72
2020/12/19 04:17:39;;;;;;;1.70;1.20;;;21.30;48.30;;;;;;5121492;27;20101;-72
2020/12/19 04:20:08;;;;;;;1.73;1.15;;;21.30;48.30;;;;;;5107505;28;20120;-72
2020/12/19 04:22:34;;;;;;;1.63;1.10;;;21.30;48.40;;;;;;5111096;27;20043;-71
2020/12/19 04:25:00;;;;;;;1.55;1.13;;;21.30;48.30;;;;;;5126422;27;20027;-72
2020/12/19 04:27:26;;;;;;;1.52;1.10;;;21.20;48.30;;;;;;5105853;28;20367;-72
2020/12/19 04:29:52;;;;;;;1.52;1.05;;;21.20;48.30;;;;;;5111929;27;20025;-72
2020/12/19 04:32:18;;;;;;;1.60;1.10;;;21.30;48.40;;;;;;5124292;27;20048;-72
2020/12/19 04:34:44;;;;;;;2.13;1.30;;;21.20;48.30;;;;;;5142718;27;20043;-71
2020/12/19 04:37:09;;;;;;;1.60;1.10;;;21.20;48.30;;;;;;5118159;27;20078;-71
2020/12/19 04:39:35;;;;;;;1.63;1.10;;;21.20;48.30;;;;;;5121349;27;20427;-72
2020/12/19 04:42:01;;;;;;;1.35;1.00;;;21.20;48.30;;;;;;5109357;27;20039;-71
2020/12/19 04:44:27;;;;;;;1.50;1.10;;;21.20;48.30;;;;;;5125417;27;20041;-72
2020/12/19 04:46:53;;;;;;;1.55;1.00;;;21.20;48.30;;;;;;5121046;27;20094;-72
2020/12/19 04:49:19;;;;;;;1.95;1.10;;;21.20;48.30;;;;;;5105669;27;20430;-72
2020/12/19 04:51:46;;;;;;;1.65;1.00;;;21.20;48.30;;;;;;5110872;27;20573;-72
2020/12/19 04:54:11;;;;;;;1.83;1.10;;;21.20;48.40;;;;;;5115905;27;20088;-72
2020/12/19 04:56:38;;;;;;;1.50;1.08;;;21.10;48.30;;;;;;5126627;27;20023;-72
2020/12/19 04:59:04;;;;;;;1.40;1.10;;;21.20;48.40;;;;;;5104915;28;20034;-72
2020/12/19 05:01:30;;;;;;;1.42;1.05;;;21.20;48.40;;;;;;5105718;28;20455;-71
2020/12/19 05:03:56;;;;;;;1.42;1.05;;;21.10;48.30;;;;;;5116101;27;20035;-72
2020/12/19 05:06:24;;;;;;;2.72;1.20;;;21.20;48.40;;;;;;5124458;27;20100;-71
2020/12/19 05:08:51;;;;;;;1.45;1.00;;;21.10;48.40;;;;;;5126825;27;20533;-72
2020/12/19 05:11:17;;;;;;;1.48;1.00;;;21.10;48.40;;;;;;5110409;28;20024;-71
2020/12/19 05:13:44;;;;;;;1.33;1.00;;;21.20;48.40;;;;;;5117174;27;20061;-71
2020/12/19 05:16:11;;;;;;;1.50;1.05;;;21.10;48.40;;;;;;5104943;28;20117;-72
2020/12/19 05:18:38;;;;;;;1.80;1.17;;;21.10;48.40;;;;;;5125660;28;20474;-71
2020/12/19 05:21:04;;;;;;;1.35;1.02;;;21.10;48.40;;;;;;5118513;28;20392;-72
2020/12/19 05:23:35;;;;;;;1.67;1.10;;;21.10;48.50;;;;;;5110994;28;20032;-71
2020/12/19 05:26:06;;;;;;;1.25;0.93;;;21.10;48.40;;;;;;5124144;27;20023;-71
2020/12/19 05:28:37;;;;;;;1.35;0.95;;;21.10;48.40;;;;;;5112723;28;20042;-72
2020/12/19 05:31:03;;;;;;;1.13;0.90;;;21.10;48.50;;;;;;5117097;28;20184;-71
2020/12/19 05:33:37;;;;;;;1.38;1.00;;;21.10;48.50;;;;;;5087449;28;20059;-72
2020/12/19 05:36:04;;;;;;;2.13;1.13;;;21.10;48.50;;;;;;5107323;27;20055;-72
2020/12/19 05:38:30;;;;;;;1.48;1.00;;;21.10;48.50;;;;;;5114835;28;20396;-71
2020/12/19 05:40:58;;;;;;;1.10;1.00;;;21.10;48.50;;;;;;5098428;28;20112;-71
2020/12/19 05:43:24;;;;;;;1.77;1.10;;;21.10;48.50;;;;;;5118729;28;20030;-72
2020/12/19 05:45:50;;;;;;;1.25;1.00;;;21.00;48.50;;;;;;5123058;27;20346;-71
2020/12/19 05:48:15;;;;;;;2.00;1.02;;;21.00;48.50;;;;;;5116541;28;20023;-71
2020/12/19 05:50:42;;;;;;;1.88;0.90;;;21.10;48.50;;;;;;5124332;28;20054;-71
2020/12/19 05:53:09;;;;;;;1.27;0.90;;;21.10;48.50;;;;;;5086843;28;20100;-71
2020/12/19 05:55:35;;;;;;;1.33;1.00;;;21.00;48.50;;;;;;5120285;27;20474;-71
2020/12/19 05:58:04;;;;;;;1.25;0.95;;;21.00;48.50;;;;;;5098352;28;20035;-71
2020/12/19 06:00:31;;;;;;;0.90;0.80;;;21.00;48.60;;;;;;5104681;28;20078;-71
2020/12/19 06:02:57;;;;;;;1.63;1.20;;;21.00;48.50;;;;;;5109965;28;20368;-71
2020/12/19 06:05:24;;;;;;;1.50;0.90;;;21.00;48.60;;;;;;5097098;27;20118;-71
2020/12/19 06:07:50;;;;;;;1.10;1.00;;;21.00;48.60;;;;;;5104552;28;20518;-71
2020/12/19 06:10:17;;;;;;;1.30;0.93;;;21.00;48.60;;;;;;5115029;27;20115;-71
2020/12/19 06:13:04;;;;;;;1.35;1.02;;;21.00;48.60;;;;;;5095764;27;20478;-71
2020/12/19 06:15:49;;;;;;;1.55;1.00;;;21.00;48.60;;;;;;5117052;27;20309;-71
2020/12/19 06:18:41;;;;;;;1.48;0.90;;;21.00;48.60;;;;;;5115022;27;20031;-71
2020/12/19 06:21:10;;;;;;;1.20;0.90;;;21.00;48.60;;;;;;5116364;27;20039;-71
2020/12/19 06:23:39;;;;;;;1.50;1.00;;;21.00;48.60;;;;;;5109886;27;20067;-71
2020/12/19 06:26:05;;;;;;;1.38;1.00;;;21.00;48.60;;;;;;5108144;27;20118;-70
2020/12/19 06:28:43;;;;;;;1.90;1.02;;;21.00;48.60;;;;;;5109842;27;20129;-70
2020/12/19 06:31:21;;;;;;;1.40;0.93;;;20.90;48.60;;;;;;5115099;27;20114;-71
2020/12/19 06:33:54;;;;;;;1.20;0.90;;;21.00;48.60;;;;;;5093366;27;20032;-69
2020/12/19 06:36:27;;;;;;;1.40;0.95;;;20.90;48.50;;;;;;5120568;27;20027;-68
2020/12/19 06:38:58;;;;;;;1.23;1.00;;;20.90;48.60;;;;;;5120518;27;20023;-67
2020/12/19 06:41:49;;;;;;;1.13;0.90;;;20.90;48.60;;;;;;5113722;27;20031;-67
2020/12/19 06:44:14;;;;;;;1.27;0.90;;;20.90;48.60;;;;;;5119446;27;20576;-68
2020/12/19 06:46:41;;;;;;;1.35;0.90;;;20.90;48.60;;;;;;5133158;27;20035;-68
2020/12/19 06:49:25;;;;;;;1.50;1.00;;;20.90;48.50;;;;;;5128619;27;20326;-68
2020/12/19 06:52:10;;;;;;;1.15;0.85;;;20.90;48.50;;;;;;5104516;27;20024;-68
2020/12/19 06:54:40;;;;;;;1.42;1.00;;;20.90;48.40;;;;;;5088138;28;20023;-68
2020/12/19 06:57:23;;;;;;;1.50;1.10;;;20.90;48.30;;;;;;5125714;27;20031;-67
2020/12/19 06:59:49;;;;;;;1.58;1.13;;;20.90;48.30;;;;;;5098974;27;20035;-69
2020/12/19 07:02:20;;;;;;;1.15;0.95;;;20.90;48.20;;;;;;5112568;27;20373;-67
2020/12/19 07:04:46;;;;;;;1.08;0.90;;;20.90;48.20;;;;;;5132479;27;20117;-68
2020/12/19 07:07:14;;;;;;;1.50;1.10;;;20.90;48.20;;;;;;5105604;28;20027;-67
2020/12/19 07:09:40;;;;;;;1.40;1.02;;;20.80;48.10;;;;;;5090562;28;20027;-67
2020/12/19 07:12:30;;;;;;;1.60;1.10;;;20.90;48.20;;;;;;5096667;27;20080;-67
2020/12/19 07:14:55;;;;;;;1.27;0.95;;;20.80;48.10;;;;;;5107327;27;20058;-68
2020/12/19 07:17:21;;;;;;;1.13;0.90;;;20.80;48.00;;;;;;5106401;27;20105;-67
2020/12/19 07:19:55;;;;;;;1.35;1.02;;;20.80;48.10;;;;;;5116414;27;21001;-66
2020/12/19 07:22:24;;;;;;;1.70;1.00;;;20.80;48.00;;;;;;5119527;27;20038;-66
2020/12/19 07:24:50;;;;;;;1.63;1.10;;;20.80;48.10;;;;;;5104703;27;20081;-69
2020/12/19 07:27:16;;;;;;;1.65;1.02;;;20.80;48.00;;;;;;5123116;27;20114;-67
2020/12/19 07:29:41;;;;;;;1.30;1.10;;;20.80;48.00;;;;;;5143570;27;20090;-67
2020/12/19 07:32:07;;;;;;;1.42;1.05;;;20.80;48.00;;;;;;5095359;27;20027;-67
2020/12/19 07:34:33;;;;;;;1.35;1.00;;;20.80;48.00;;;;;;5103721;27;20695;-67
2020/12/19 07:36:58;;;;;;;1.10;0.90;;;20.80;48.00;;;;;;5100023;27;20031;-67
2020/12/19 07:39:24;;;;;;;1.50;1.00;;;20.80;48.00;;;;;;5117992;27;20055;-67
2020/12/19 07:42:10;;;;;;;2.90;1.10;;;20.80;48.10;;;;;;5096264;27;20023;-67
2020/12/19 07:44:37;;;;;;;1.90;1.10;;;20.80;48.00;;;;;;5107444;27;20385;-67
2020/12/19 07:47:10;;;;;;;1.48;1.00;;;20.80;48.10;;;;;;5120707;27;20109;-68
2020/12/19 07:49:45;;;;;;;1.55;1.02;;;20.80;48.10;;;;;;5097450;27;20043;-68
2020/12/19 07:52:15;;;;;;;1.40;1.08;;;20.80;48.00;;;;;;5112868;27;20429;-67
2020/12/19 07:54:51;;;;;;;1.52;1.05;;;20.80;48.10;;;;;;5126247;27;20065;-67
2020/12/19 07:57:17;;;;;;;1.40;1.00;;;20.70;48.10;;;;;;5095213;28;20032;-67
2020/12/19 07:59:43;;;;;;;1.30;1.00;;;20.70;48.10;;;;;;5101137;27;20034;-67
2020/12/19 08:02:10;;;;;;;1.90;1.15;;;20.70;48.10;;;;;;5116145;27;20712;-68
2020/12/19 08:04:36;;;;;;;1.70;1.30;;;20.70;48.10;;;;;;5120143;27;20047;-68
2020/12/19 08:07:02;;;;;;;1.35;1.08;;;20.70;48.10;;;;;;5121702;27;20069;-67
2020/12/19 08:09:28;;;;;;;1.20;0.90;;;20.70;48.60;;;;;;5122390;27;20055;-67
2020/12/19 08:11:59;;;;;;;0.98;0.80;;;20.70;48.10;;;;;;5119169;27;20096;-67
2020/12/19 08:14:25;;;;;;;2.05;1.10;;;20.70;48.10;;;;;;5103324;27;20042;-69
2020/12/19 08:16:52;;;;;;;1.25;0.90;;;20.70;48.10;;;;;;5123717;27;20038;-67
2020/12/19 08:19:29;;;;;;;1.50;1.10;;;20.70;48.10;;;;;;5114577;27;20035;-68
2020/12/19 08:22:00;;;;;;;1.60;1.00;;;20.70;48.10;;;;;;5116762;27;20019;-68
2020/12/19 08:24:27;;;;;;;1.40;1.00;;;20.70;48.10;;;;;;5107529;27;20471;-68
2020/12/19 08:27:24;;;;;;;2.13;1.20;;;20.70;48.10;;;;;;5123526;27;20067;-68
2020/12/19 08:30:13;;;;;;;1.50;1.00;;;20.70;48.10;;;;;;5112562;27;20106;-67
2020/12/19 08:32:44;;;;;;;1.63;1.10;;;20.70;48.10;;;;;;5112800;27;20027;-68
2020/12/19 08:35:16;;;;;;;1.30;1.00;;;20.70;48.20;;;;;;5105700;27;20426;-67
2020/12/19 08:37:41;;;;;;;1.45;1.00;;;20.70;48.10;;;;;;5111727;27;20084;-70
2020/12/19 08:40:32;;;;;;;1.80;1.00;;;20.70;48.20;;;;;;5123392;27;20027;-68
2020/12/19 08:42:57;;;;;;;1.02;0.90;;;20.60;48.10;;;;;;5120017;27;20450;-67
2020/12/19 08:45:26;;;;;;;1.60;1.10;;;20.60;48.10;;;;;;5117446;27;20111;-68
2020/12/19 08:47:54;;;;;;;1.42;1.00;;;20.60;48.10;;;;;;5105201;27;20034;-67
2020/12/19 08:50:25;;;;;;;1.20;0.82;;;20.60;48.20;;;;;;5123120;27;20098;-68
2020/12/19 08:53:01;;;;;;;1.30;0.98;;;20.60;48.20;;;;;;5115693;27;20034;-67
2020/12/19 08:55:27;;;;;;;2.33;1.00;;;20.60;48.20;;;;;;5120764;27;20684;-67
2020/12/19 08:57:52;;;;;;;1.20;0.90;;;20.60;48.20;;;;;;5119344;27;20029;-67
2020/12/19 09:00:18;;;;;;;3.80;1.40;;;20.60;48.20;;;;;;5122705;27;20039;-68
2020/12/19 09:02:44;;;;;;;1.85;1.00;;;20.60;48.20;;;;;;5112343;27;20035;-68
2020/12/19 09:05:10;;;;;;;1.42;0.90;;;20.60;48.30;;;;;;5114878;28;20095;-67
2020/12/19 09:07:37;;;;;;;1.60;0.93;;;20.60;48.30;;;;;;5122992;27;20027;-66
2020/12/19 09:10:22;;;;;;;2.00;1.10;;;20.60;48.30;;;;;;5107530;28;20027;-69
2020/12/19 09:13:04;;;;;;;1.35;0.98;;;20.60;48.30;;;;;;5099299;28;20046;-67
2020/12/19 09:15:30;;;;;;;1.13;1.00;;;20.60;48.30;;;;;;5117082;27;20598;-70
2020/12/19 09:17:56;;;;;;;1.30;1.00;;;20.60;48.30;;;;;;5105436;28;20114;-67
2020/12/19 09:20:23;;;;;;;2.00;1.20;;;20.60;48.30;;;;;;5105539;28;20031;-66
2020/12/19 09:22:48;;;;;;;1.10;1.00;;;20.60;48.40;;;;;;5096733;28;20046;-67
2020/12/19 09:25:14;;;;;;;1.23;0.90;;;20.60;48.40;;;;;;5120931;28;20053;-67
2020/12/19 09:27:41;;;;;;;1.85;1.02;;;20.60;48.40;;;;;;5103495;28;20031;-68
2020/12/19 09:30:07;;;;;;;1.95;1.10;;;20.50;48.40;;;;;;5123609;28;20556;-68
2020/12/19 09:32:32;;;;;;;1.35;1.00;;;20.50;48.40;;;;;;5116722;27;20100;-68
2020/12/19 09:34:58;;;;;;;1.70;1.10;;;20.50;48.40;;;;;;5096165;27;20490;-68
2020/12/19 09:37:24;;;;;;;1.50;1.10;;;20.50;48.40;;;;;;5119272;27;20179;-67
2020/12/19 09:39:49;;;;;;;1.25;0.93;;;20.50;48.40;;;;;;5105351;28;20027;-67
2020/12/19 09:42:15;;;;;;;2.08;1.00;;;20.50;48.50;;;;;;5115808;28;20061;-67
2020/12/19 09:44:40;;;;;;;1.58;1.00;;;20.50;48.50;;;;;;5115198;27;20023;-68
2020/12/19 09:47:06;;;;;;;1.63;0.98;;;20.50;48.50;;;;;;5107480;28;20122;-67
2020/12/19 09:49:31;;;;;;;1.83;1.00;;;20.50;48.50;;;;;;5124043;27;20027;-68
2020/12/19 09:52:02;;;;;;;1.98;1.10;;;20.50;48.50;;;;;;5120639;27;20050;-69
2020/12/19 09:54:27;;;;;;;1.52;0.90;;;20.50;48.50;;;;;;5119135;27;20684;-68
2020/12/19 09:56:53;;;;;;;1.73;1.00;;;20.50;48.60;;;;;;5120908;27;20122;-67
2020/12/19 09:59:18;;;;;;;2.97;1.30;;;20.50;48.50;;;;;;5111778;27;20023;-69
2020/12/19 10:01:44;;;;;;;2.10;1.20;;;20.50;48.60;;;;;;5117707;27;20478;-69
2020/12/19 10:04:10;;;;;;;2.20;1.10;;;20.50;48.60;;;;;;5106005;27;20642;-69
2020/12/19 10:06:35;;;;;;;1.63;1.10;;;20.50;48.60;;;;;;5120970;27;20089;-68
2020/12/19 10:09:01;;;;;;;1.70;1.10;;;20.50;48.60;;;;;;5123587;27;20035;-68
2020/12/19 10:11:27;;;;;;;2.67;1.13;;;20.50;48.60;;;;;;5126995;27;20831;-69
2020/12/19 10:13:52;;;;;;;1.88;1.17;;;20.50;48.60;;;;;;5129007;27;20076;-68
2020/12/19 10:16:18;;;;;;;2.38;1.20;;;20.50;48.70;;;;;;5116949;27;20035;-68
2020/12/19 10:18:44;;;;;;;2.08;1.10;;;20.50;48.70;;;;;;5123548;27;20423;-68
2020/12/19 10:21:11;;;;;;;1.83;1.10;;;20.40;48.60;;;;;;5128281;27;20026;-68
2020/12/19 10:23:39;;;;;;;1.73;1.10;;;20.40;48.60;;;;;;5127516;27;20102;-67
2020/12/19 10:26:05;;;;;;;1.80;1.00;;;20.50;48.70;;;;;;5125465;27;20051;-68
2020/12/19 10:28:30;;;;;;;2.20;1.20;;;20.40;48.70;;;;;;5127806;27;20619;-68
2020/12/19 10:30:56;;;;;;;2.28;1.10;;;20.40;48.70;;;;;;5100988;28;20202;-67
2020/12/19 10:33:22;;;;;;;1.98;1.10;;;20.40;48.70;;;;;;5101886;27;20102;-68
2020/12/19 10:35:48;;;;;;;2.30;1.10;;;20.40;48.80;;;;;;5121734;27;20027;-68
2020/12/19 10:38:16;;;;;;;2.30;1.23;;;20.40;48.70;;;;;;5106738;27;20415;-67
2020/12/19 10:40:42;;;;;;;2.08;1.15;;;20.40;48.80;;;;;;5107169;27;20050;-68
2020/12/19 10:43:07;;;;;;;2.08;1.30;;;20.40;49.30;;;;;;5116624;27;20028;-67
2020/12/19 10:45:33;;;;;;;2.45;1.10;;;20.40;48.80;;;;;;5102972;27;20034;-67
2020/12/19 10:47:59;;;;;;;2.17;1.20;;;20.40;48.80;;;;;;5094219;27;20213;-69
2020/12/19 10:50:25;;;;;;;1.50;1.08;;;20.40;48.80;;;;;;5114952;27;20447;-68
2020/12/19 10:52:51;;;;;;;3.40;1.50;;;20.40;48.90;;;;;;5102539;27;20032;-69
2020/12/19 10:55:16;;;;;;;2.42;1.20;;;20.40;48.90;;;;;;5103569;27;20474;-67
2020/12/19 10:57:42;;;;;;;2.47;1.20;;;20.30;48.80;;;;;;5126935;27;20027;-68
2020/12/19 11:00:08;;;;;;;2.15;1.23;;;20.40;48.90;;;;;;5124041;27;20531;-67
2020/12/19 11:02:34;;;;;;;2.38;1.30;;;20.40;48.90;;;;;;5119155;27;20484;-66
2020/12/19 11:04:59;;;;;;;2.88;1.33;;;20.40;48.90;;;;;;5120699;27;20049;-66
2020/12/19 11:07:25;;;;;;;2.42;1.20;;;20.40;48.90;;;;;;5106550;27;20023;-67
2020/12/19 11:09:51;;;;;;;3.10;1.30;;;20.40;48.90;;;;;;5105077;27;20031;-67
2020/12/19 11:12:16;;;;;;;2.22;1.20;;;20.40;48.90;;;;;;5104949;27;20020;-68
2020/12/19 11:14:42;;;;;;;2.03;1.05;;;20.30;48.90;;;;;;5122430;27;20027;-69
2020/12/19 11:17:07;;;;;;;2.17;1.00;;;20.40;49.00;;;;;;5100850;27;20031;-67
2020/12/19 11:19:33;;;;;;;2.25;1.20;;;20.40;49.00;;;;;;5124034;27;20042;-67
2020/12/19 11:21:59;;;;;;;2.45;1.27;;;20.30;48.90;;;;;;5100997;27;20035;-67
2020/12/19 11:24:26;;;;;;;2.03;1.20;;;20.30;49.00;;;;;;5122815;27;20094;-69
2020/12/19 11:26:51;;;;;;;3.10;1.30;;;20.30;49.00;;;;;;5122452;27;20137;-68
2020/12/19 11:29:17;;;;;;;2.33;1.17;;;20.30;49.00;;;;;;5099843;27;20122;-66
2020/12/19 11:31:43;;;;;;;1.92;1.25;;;20.30;49.00;;;;;;5119284;27;20019;-67
2020/12/19 11:34:12;;;;;;;2.17;1.20;;;20.30;49.10;;;;;;5113895;27;20028;-66
2020/12/19 11:36:38;;;;;;;2.10;1.40;;;20.30;49.10;;;;;;5102264;27;20111;-68
2020/12/19 11:39:09;;;;;;;3.20;1.45;;;20.30;49.10;;;;;;5117170;27;20138;-67
2020/12/19 11:41:34;;;;;;;1.67;1.13;;;20.30;49.20;;;;;;5122177;27;20115;-67
2020/12/19 11:44:00;;;;;;;1.83;1.10;;;20.30;49.20;;;;;;5124195;27;20608;-66
2020/12/19 11:46:26;;;;;;;2.28;1.20;;;20.30;49.20;;;;;;5116865;27;20470;-68
2020/12/19 11:48:51;;;;;;;2.45;1.50;;;20.30;49.20;;;;;;5116908;27;20031;-67
2020/12/19 11:51:17;;;;;;;2.70;1.38;;;20.30;49.30;;;;;;5125037;27;20476;-67
2020/12/19 11:53:43;;;;;;;2.20;1.23;;;20.30;49.30;;;;;;5118040;27;20058;-67
2020/12/19 11:56:08;;;;;;;2.28;1.27;;;20.30;49.30;;;;;;5118042;27;20023;-66
2020/12/19 11:58:34;;;;;;;2.03;1.38;;;20.30;49.30;;;;;;5123841;27;20060;-67
2020/12/19 12:01:00;;;;;;;2.50;1.38;;;20.30;49.30;;;;;;5112628;27;20086;-66
2020/12/19 12:03:25;;;;;;;2.00;1.20;;;20.30;49.40;;;;;;5114271;27;20427;-66
2020/12/19 12:05:51;;;;;;;2.45;1.30;;;20.30;49.50;;;;;;5124691;27;20027;-67
2020/12/19 12:08:16;;;;;;;2.65;1.40;;;20.30;49.50;;;;;;5114816;27;20032;-66
2020/12/19 12:10:43;;;;;;;2.25;1.20;;;20.30;49.50;;;;;;5107973;27;20027;-67
2020/12/19 12:13:08;;;;;;;2.80;1.40;;;20.20;49.50;;;;;;5111663;27;20038;-68
2020/12/19 12:15:34;;;;;;;2.45;1.30;;;20.20;49.50;;;;;;5098525;27;20027;-68
2020/12/19 12:18:00;;;;;;;1.90;1.30;;;20.20;49.50;;;;;;5112753;27;20482;-67
2020/12/19 12:20:26;;;;;;;2.85;1.42;;;20.30;49.60;;;;;;5112225;27;20034;-67
2020/12/19 12:22:51;;;;;;;2.40;1.45;;;20.20;49.60;;;;;;5111215;27;20027;-66
2020/12/19 12:25:17;;;;;;;3.83;2.13;;;20.20;50.20;;;;;;5108351;27;20028;-68
2020/12/19 12:27:42;;;;;;;2.85;1.90;;;20.30;50.10;;;;;;5087623;27;20032;-68
2020/12/19 12:30:09;;;;;;;4.13;2.05;;;20.30;49.90;;;;;;5117859;27;20034;-66
2020/12/19 12:32:34;;;;;;;4.25;2.30;;;20.50;49.80;;;;;;5111122;27;20125;-67
2020/12/19 12:35:00;;;;;;;3.78;2.20;;;20.60;49.60;;;;;;5096758;28;20118;-68
2020/12/19 12:37:26;;;;;;;4.20;2.45;;;20.70;49.40;;;;;;5108598;27;20027;-68
2020/12/19 12:39:52;;;;;;;4.45;2.45;;;20.90;49.20;;;;;;5105192;27;20715;-67
2020/12/19 12:42:22;;;;;;;3.92;2.45;;;21.00;49.00;;;;;;5109360;27;20019;-68
2020/12/19 12:44:48;;;;;;;4.40;2.20;;;21.10;48.80;;;;;;5114770;27;20113;-67
2020/12/19 12:47:13;;;;;;;3.50;2.40;;;21.20;48.60;;;;;;5107728;27;20084;-68
2020/12/19 12:49:39;;;;;;;3.30;2.10;;;21.30;48.50;;;;;;5095434;27;20669;-66